sensor_id;sensor_type;location;lat;lon;timestamp;P1;durP1;ratioP1;P2;durP2;ratioP2
30635;SDS011;17400;52.392;9.750;2023-03-20T00:01:58;19.35;;;11.05;;
30635;SDS011;17400;52.392;9.750;2023-03-20T00:04:27;20.27;;;11.50;;
30635;SDS011;17400;52.392;9.750;2023-03-20T00:06:55;18.75;;;10.88;;
30635;SDS011;17400;52.392;9.750;2023-03-20T00:09:23;19.42;;;10.73;;
30635;SDS011;17400;52.392;9.750;2023-03-20T00:11:52;22.23;;;12.40;;
30635;SDS011;17400;52.392;9.750;2023-03-20T00:14:21;25.13;;;13.23;;
30635;SDS011;17400;52.392;9.750;2023-03-20T00:16:50;26.50;;;14.27;;
30635;SDS011;17400;52.392;9.750;2023-03-20T00:19:19;33.45;;;13.98;;
30635;SDS011;17400;52.392;9.750;2023-03-20T00:21:50;28.40;;;15.35;;
30635;SDS011;17400;52.392;9.750;2023-03-20T00:24:18;28.27;;;14.73;;
30635;SDS011;17400;52.392;9.750;2023-03-20T00:26:47;34.00;;;16.23;;
30635;SDS011;17400;52.392;9.750;2023-03-20T00:29:17;32.72;;;16.35;;
30635;SDS011;17400;52.392;9.750;2023-03-20T00:31:48;34.63;;;18.15;;
30635;SDS011;17400;52.392;9.750;2023-03-20T00:34:18;31.30;;;15.63;;
30635;SDS011;17400;52.392;9.750;2023-03-20T00:36:50;31.02;;;16.13;;
30635;SDS011;17400;52.392;9.750;2023-03-20T00:39:18;32.05;;;14.23;;
30635;SDS011;17400;52.392;9.750;2023-03-20T00:41:47;25.63;;;14.50;;
30635;SDS011;17400;52.392;9.750;2023-03-20T00:44:21;26.55;;;13.13;;
30635;SDS011;17400;52.392;9.750;2023-03-20T00:46:52;23.75;;;12.98;;
30635;SDS011;17400;52.392;9.750;2023-03-20T00:49:23;31.58;;;14.23;;
30635;SDS011;17400;52.392;9.750;2023-03-20T00:51:54;24.65;;;11.98;;
30635;SDS011;17400;52.392;9.750;2023-03-20T00:54:23;26.27;;;13.02;;
30635;SDS011;17400;52.392;9.750;2023-03-20T00:56:53;25.80;;;12.73;;
30635;SDS011;17400;52.392;9.750;2023-03-20T00:59:25;26.58;;;13.02;;
30635;SDS011;17400;52.392;9.750;2023-03-20T01:01:55;27.80;;;14.93;;
30635;SDS011;17400;52.392;9.750;2023-03-20T01:04:23;29.13;;;15.18;;
30635;SDS011;17400;52.392;9.750;2023-03-20T01:06:58;34.47;;;16.08;;
30635;SDS011;17400;52.392;9.750;2023-03-20T01:09:28;33.53;;;15.80;;
30635;SDS011;17400;52.392;9.750;2023-03-20T01:11:55;31.05;;;15.45;;
30635;SDS011;17400;52.392;9.750;2023-03-20T01:14:25;27.27;;;13.32;;
30635;SDS011;17400;52.392;9.750;2023-03-20T01:16:54;27.35;;;14.52;;
30635;SDS011;17400;52.392;9.750;2023-03-20T01:19:21;33.05;;;16.05;;
30635;SDS011;17400;52.392;9.750;2023-03-20T01:21:49;26.73;;;16.13;;
30635;SDS011;17400;52.392;9.750;2023-03-20T01:24:18;30.67;;;15.07;;
30635;SDS011;17400;52.392;9.750;2023-03-20T01:26:46;31.65;;;14.77;;
30635;SDS011;17400;52.392;9.750;2023-03-20T01:29:16;27.65;;;12.20;;
30635;SDS011;17400;52.392;9.750;2023-03-20T01:31:45;38.15;;;15.55;;
30635;SDS011;17400;52.392;9.750;2023-03-20T01:34:14;34.58;;;16.15;;
30635;SDS011;17400;52.392;9.750;2023-03-20T01:36:43;28.63;;;13.73;;
30635;SDS011;17400;52.392;9.750;2023-03-20T01:39:14;31.02;;;13.98;;
30635;SDS011;17400;52.392;9.750;2023-03-20T01:41:45;30.20;;;13.82;;
30635;SDS011;17400;52.392;9.750;2023-03-20T01:44:16;30.88;;;14.02;;
30635;SDS011;17400;52.392;9.750;2023-03-20T01:46:47;31.75;;;14.88;;
30635;SDS011;17400;52.392;9.750;2023-03-20T01:52:32;33.05;;;13.63;;
30635;SDS011;17400;52.392;9.750;2023-03-20T01:55:00;29.75;;;14.32;;
30635;SDS011;17400;52.392;9.750;2023-03-20T01:57:30;30.25;;;14.18;;
30635;SDS011;17400;52.392;9.750;2023-03-20T01:59:59;29.35;;;13.65;;
30635;SDS011;17400;52.392;9.750;2023-03-20T02:02:30;29.05;;;13.60;;
30635;SDS011;17400;52.392;9.750;2023-03-20T02:04:59;27.00;;;12.77;;
30635;SDS011;17400;52.392;9.750;2023-03-20T02:07:30;27.20;;;12.93;;
30635;SDS011;17400;52.392;9.750;2023-03-20T02:10:01;23.08;;;12.63;;
30635;SDS011;17400;52.392;9.750;2023-03-20T02:12:31;26.42;;;11.88;;
30635;SDS011;17400;52.392;9.750;2023-03-20T02:15:01;23.27;;;11.23;;
30635;SDS011;17400;52.392;9.750;2023-03-20T02:17:30;19.15;;;9.80;;
30635;SDS011;17400;52.392;9.750;2023-03-20T02:20:02;21.65;;;10.50;;
30635;SDS011;17400;52.392;9.750;2023-03-20T02:25:43;19.35;;;8.95;;
30635;SDS011;17400;52.392;9.750;2023-03-20T02:28:36;21.95;;;10.82;;
30635;SDS011;17400;52.392;9.750;2023-03-20T02:31:30;26.10;;;9.32;;
30635;SDS011;17400;52.392;9.750;2023-03-20T02:34:28;18.23;;;8.02;;
30635;SDS011;17400;52.392;9.750;2023-03-20T02:37:30;19.58;;;7.93;;
30635;SDS011;17400;52.392;9.750;2023-03-20T02:40:23;20.60;;;9.93;;
30635;SDS011;17400;52.392;9.750;2023-03-20T02:43:01;20.15;;;8.20;;
30635;SDS011;17400;52.392;9.750;2023-03-20T02:45:32;20.17;;;8.68;;
30635;SDS011;17400;52.392;9.750;2023-03-20T02:48:09;22.02;;;8.77;;
30635;SDS011;17400;52.392;9.750;2023-03-20T02:50:46;19.10;;;8.10;;
30635;SDS011;17400;52.392;9.750;2023-03-20T02:53:21;23.92;;;8.50;;
30635;SDS011;17400;52.392;9.750;2023-03-20T02:56:00;21.02;;;9.00;;
30635;SDS011;17400;52.392;9.750;2023-03-20T02:58:35;19.92;;;8.57;;
30635;SDS011;17400;52.392;9.750;2023-03-20T03:01:10;20.95;;;8.73;;
30635;SDS011;17400;52.392;9.750;2023-03-20T03:03:44;19.02;;;8.48;;
30635;SDS011;17400;52.392;9.750;2023-03-20T03:06:16;19.45;;;8.90;;
30635;SDS011;17400;52.392;9.750;2023-03-20T03:08:51;21.75;;;8.95;;
30635;SDS011;17400;52.392;9.750;2023-03-20T03:11:25;17.83;;;8.55;;
30635;SDS011;17400;52.392;9.750;2023-03-20T03:13:53;15.63;;;7.93;;
30635;SDS011;17400;52.392;9.750;2023-03-20T03:16:23;19.33;;;8.13;;
30635;SDS011;17400;52.392;9.750;2023-03-20T03:18:57;17.75;;;8.80;;
30635;SDS011;17400;52.392;9.750;2023-03-20T03:21:30;18.02;;;8.00;;
30635;SDS011;17400;52.392;9.750;2023-03-20T03:24:01;17.63;;;8.73;;
30635;SDS011;17400;52.392;9.750;2023-03-20T03:26:31;21.08;;;8.65;;
30635;SDS011;17400;52.392;9.750;2023-03-20T03:29:03;18.48;;;7.70;;
30635;SDS011;17400;52.392;9.750;2023-03-20T03:31:37;25.77;;;10.38;;
30635;SDS011;17400;52.392;9.750;2023-03-20T03:34:07;17.63;;;8.63;;
30635;SDS011;17400;52.392;9.750;2023-03-20T03:36:40;17.73;;;8.15;;
30635;SDS011;17400;52.392;9.750;2023-03-20T03:39:19;20.52;;;8.90;;
30635;SDS011;17400;52.392;9.750;2023-03-20T03:41:56;19.63;;;9.15;;
30635;SDS011;17400;52.392;9.750;2023-03-20T03:44:33;22.55;;;8.57;;
30635;SDS011;17400;52.392;9.750;2023-03-20T03:47:09;25.08;;;10.00;;
30635;SDS011;17400;52.392;9.750;2023-03-20T03:49:44;20.67;;;8.73;;
30635;SDS011;17400;52.392;9.750;2023-03-20T03:52:18;20.63;;;8.98;;
30635;SDS011;17400;52.392;9.750;2023-03-20T03:54:50;18.48;;;9.25;;
30635;SDS011;17400;52.392;9.750;2023-03-20T03:57:23;18.65;;;8.05;;
30635;SDS011;17400;52.392;9.750;2023-03-20T03:59:55;23.55;;;9.82;;
30635;SDS011;17400;52.392;9.750;2023-03-20T04:02:25;24.35;;;9.20;;
30635;SDS011;17400;52.392;9.750;2023-03-20T04:04:53;22.95;;;9.63;;
30635;SDS011;17400;52.392;9.750;2023-03-20T04:07:24;18.83;;;8.68;;
30635;SDS011;17400;52.392;9.750;2023-03-20T04:09:55;19.67;;;8.82;;
30635;SDS011;17400;52.392;9.750;2023-03-20T04:12:33;25.45;;;10.60;;
30635;SDS011;17400;52.392;9.750;2023-03-20T04:15:02;20.58;;;9.02;;
30635;SDS011;17400;52.392;9.750;2023-03-20T04:17:31;20.35;;;9.25;;
30635;SDS011;17400;52.392;9.750;2023-03-20T04:19:59;19.02;;;8.30;;
30635;SDS011;17400;52.392;9.750;2023-03-20T04:22:27;26.85;;;10.60;;
30635;SDS011;17400;52.392;9.750;2023-03-20T04:24:56;21.48;;;9.77;;
30635;SDS011;17400;52.392;9.750;2023-03-20T04:27:23;25.65;;;10.18;;
30635;SDS011;17400;52.392;9.750;2023-03-20T04:29:52;22.20;;;10.38;;
30635;SDS011;17400;52.392;9.750;2023-03-20T04:32:20;20.20;;;9.48;;
30635;SDS011;17400;52.392;9.750;2023-03-20T04:34:48;24.55;;;10.48;;
30635;SDS011;17400;52.392;9.750;2023-03-20T04:37:17;18.92;;;8.38;;
30635;SDS011;17400;52.392;9.750;2023-03-20T04:39:45;22.08;;;10.65;;
30635;SDS011;17400;52.392;9.750;2023-03-20T04:42:14;25.33;;;11.57;;
30635;SDS011;17400;52.392;9.750;2023-03-20T04:44:42;28.75;;;13.52;;
30635;SDS011;17400;52.392;9.750;2023-03-20T04:47:10;30.05;;;13.13;;
30635;SDS011;17400;52.392;9.750;2023-03-20T04:49:37;25.25;;;10.95;;
30635;SDS011;17400;52.392;9.750;2023-03-20T04:52:05;26.23;;;10.70;;
30635;SDS011;17400;52.392;9.750;2023-03-20T04:54:33;24.23;;;11.35;;
30635;SDS011;17400;52.392;9.750;2023-03-20T04:57:01;24.05;;;10.15;;
30635;SDS011;17400;52.392;9.750;2023-03-20T04:59:30;24.90;;;9.60;;
30635;SDS011;17400;52.392;9.750;2023-03-20T05:01:58;25.70;;;10.77;;
30635;SDS011;17400;52.392;9.750;2023-03-20T05:04:26;23.38;;;11.23;;
30635;SDS011;17400;52.392;9.750;2023-03-20T05:06:54;24.85;;;9.77;;
30635;SDS011;17400;52.392;9.750;2023-03-20T05:09:22;22.50;;;9.38;;
30635;SDS011;17400;52.392;9.750;2023-03-20T05:11:49;25.42;;;10.85;;
30635;SDS011;17400;52.392;9.750;2023-03-20T05:14:17;29.60;;;11.88;;
30635;SDS011;17400;52.392;9.750;2023-03-20T05:16:46;27.30;;;11.02;;
30635;SDS011;17400;52.392;9.750;2023-03-20T05:19:15;25.42;;;10.80;;
30635;SDS011;17400;52.392;9.750;2023-03-20T05:21:43;25.58;;;10.88;;
30635;SDS011;17400;52.392;9.750;2023-03-20T05:24:11;27.98;;;10.40;;
30635;SDS011;17400;52.392;9.750;2023-03-20T05:26:38;28.35;;;10.80;;
30635;SDS011;17400;52.392;9.750;2023-03-20T05:29:06;22.38;;;9.50;;
30635;SDS011;17400;52.392;9.750;2023-03-20T05:31:34;26.50;;;10.68;;
30635;SDS011;17400;52.392;9.750;2023-03-20T05:34:03;19.92;;;9.02;;
30635;SDS011;17400;52.392;9.750;2023-03-20T05:36:31;23.85;;;10.55;;
30635;SDS011;17400;52.392;9.750;2023-03-20T05:38:59;22.45;;;10.50;;
30635;SDS011;17400;52.392;9.750;2023-03-20T05:41:27;25.83;;;9.50;;
30635;SDS011;17400;52.392;9.750;2023-03-20T05:43:54;26.95;;;10.07;;
30635;SDS011;17400;52.392;9.750;2023-03-20T05:46:22;29.55;;;11.75;;
30635;SDS011;17400;52.392;9.750;2023-03-20T05:48:51;24.35;;;10.18;;
30635;SDS011;17400;52.392;9.750;2023-03-20T05:51:21;20.90;;;9.75;;
30635;SDS011;17400;52.392;9.750;2023-03-20T05:53:51;23.90;;;9.52;;
30635;SDS011;17400;52.392;9.750;2023-03-20T05:56:19;22.10;;;10.98;;
30635;SDS011;17400;52.392;9.750;2023-03-20T05:58:47;26.25;;;9.68;;
30635;SDS011;17400;52.392;9.750;2023-03-20T06:01:17;24.70;;;10.15;;
30635;SDS011;17400;52.392;9.750;2023-03-20T06:03:46;25.63;;;11.30;;
30635;SDS011;17400;52.392;9.750;2023-03-20T06:06:15;26.63;;;11.43;;
30635;SDS011;17400;52.392;9.750;2023-03-20T06:08:44;21.08;;;9.45;;
30635;SDS011;17400;52.392;9.750;2023-03-20T06:11:12;25.40;;;11.85;;
30635;SDS011;17400;52.392;9.750;2023-03-20T06:13:39;21.52;;;10.07;;
30635;SDS011;17400;52.392;9.750;2023-03-20T06:16:07;27.75;;;12.23;;
30635;SDS011;17400;52.392;9.750;2023-03-20T06:18:35;25.30;;;9.82;;
30635;SDS011;17400;52.392;9.750;2023-03-20T06:21:04;31.48;;;14.93;;
30635;SDS011;17400;52.392;9.750;2023-03-20T06:23:32;24.80;;;12.35;;
30635;SDS011;17400;52.392;9.750;2023-03-20T06:26:04;23.13;;;10.20;;
30635;SDS011;17400;52.392;9.750;2023-03-20T06:28:33;29.00;;;10.10;;
30635;SDS011;17400;52.392;9.750;2023-03-20T06:31:02;24.50;;;10.80;;
30635;SDS011;17400;52.392;9.750;2023-03-20T06:33:30;22.98;;;11.80;;
30635;SDS011;17400;52.392;9.750;2023-03-20T06:35:58;27.85;;;11.63;;
30635;SDS011;17400;52.392;9.750;2023-03-20T06:38:26;27.50;;;12.13;;
30635;SDS011;17400;52.392;9.750;2023-03-20T06:40:54;31.90;;;13.38;;
30635;SDS011;17400;52.392;9.750;2023-03-20T06:43:23;25.05;;;12.02;;
30635;SDS011;17400;52.392;9.750;2023-03-20T06:45:53;27.60;;;11.30;;
30635;SDS011;17400;52.392;9.750;2023-03-20T06:48:21;33.00;;;13.43;;
30635;SDS011;17400;52.392;9.750;2023-03-20T06:50:49;26.75;;;13.43;;
30635;SDS011;17400;52.392;9.750;2023-03-20T06:53:18;23.88;;;11.25;;
30635;SDS011;17400;52.392;9.750;2023-03-20T06:55:46;29.00;;;11.77;;
30635;SDS011;17400;52.392;9.750;2023-03-20T06:58:15;25.30;;;9.88;;
30635;SDS011;17400;52.392;9.750;2023-03-20T07:00:44;22.52;;;9.98;;
30635;SDS011;17400;52.392;9.750;2023-03-20T07:03:12;21.83;;;8.60;;
30635;SDS011;17400;52.392;9.750;2023-03-20T07:05:41;26.48;;;11.57;;
30635;SDS011;17400;52.392;9.750;2023-03-20T07:08:08;27.00;;;10.63;;
30635;SDS011;17400;52.392;9.750;2023-03-20T07:10:36;21.85;;;9.57;;
30635;SDS011;17400;52.392;9.750;2023-03-20T07:13:04;26.95;;;11.07;;
30635;SDS011;17400;52.392;9.750;2023-03-20T07:15:32;22.10;;;10.82;;
30635;SDS011;17400;52.392;9.750;2023-03-20T07:18:02;23.02;;;9.55;;
30635;SDS011;17400;52.392;9.750;2023-03-20T07:20:30;17.63;;;9.13;;
30635;SDS011;17400;52.392;9.750;2023-03-20T07:22:57;22.65;;;8.70;;
30635;SDS011;17400;52.392;9.750;2023-03-20T07:25:25;18.17;;;7.90;;
30635;SDS011;17400;52.392;9.750;2023-03-20T07:28:07;16.10;;;6.88;;
30635;SDS011;17400;52.392;9.750;2023-03-20T07:30:35;20.20;;;8.60;;
30635;SDS011;17400;52.392;9.750;2023-03-20T07:33:09;12.95;;;7.28;;
30635;SDS011;17400;52.392;9.750;2023-03-20T07:35:37;17.15;;;6.60;;
30635;SDS011;17400;52.392;9.750;2023-03-20T07:38:05;16.42;;;7.88;;
30635;SDS011;17400;52.392;9.750;2023-03-20T07:40:33;19.58;;;8.07;;
30635;SDS011;17400;52.392;9.750;2023-03-20T07:43:01;17.30;;;7.28;;
30635;SDS011;17400;52.392;9.750;2023-03-20T07:45:29;18.25;;;9.13;;
30635;SDS011;17400;52.392;9.750;2023-03-20T07:47:58;19.35;;;8.65;;
30635;SDS011;17400;52.392;9.750;2023-03-20T07:50:27;14.98;;;7.95;;
30635;SDS011;17400;52.392;9.750;2023-03-20T07:52:54;17.65;;;7.68;;
30635;SDS011;17400;52.392;9.750;2023-03-20T07:55:22;18.42;;;8.30;;
30635;SDS011;17400;52.392;9.750;2023-03-20T07:57:50;21.60;;;9.55;;
30635;SDS011;17400;52.392;9.750;2023-03-20T08:00:18;12.35;;;6.22;;
30635;SDS011;17400;52.392;9.750;2023-03-20T08:02:46;19.02;;;9.73;;
30635;SDS011;17400;52.392;9.750;2023-03-20T08:05:15;18.83;;;10.73;;
30635;SDS011;17400;52.392;9.750;2023-03-20T08:07:44;21.42;;;8.05;;
30635;SDS011;17400;52.392;9.750;2023-03-20T08:10:12;14.65;;;7.20;;
30635;SDS011;17400;52.392;9.750;2023-03-20T08:12:40;16.15;;;7.20;;
30635;SDS011;17400;52.392;9.750;2023-03-20T08:15:08;14.70;;;7.25;;
30635;SDS011;17400;52.392;9.750;2023-03-20T08:17:36;18.35;;;8.38;;
30635;SDS011;17400;52.392;9.750;2023-03-20T08:20:04;18.27;;;8.10;;
30635;SDS011;17400;52.392;9.750;2023-03-20T08:22:33;20.65;;;8.85;;
30635;SDS011;17400;52.392;9.750;2023-03-20T08:25:05;15.45;;;7.57;;
30635;SDS011;17400;52.392;9.750;2023-03-20T08:27:34;20.67;;;9.80;;
30635;SDS011;17400;52.392;9.750;2023-03-20T08:30:02;17.77;;;9.00;;
30635;SDS011;17400;52.392;9.750;2023-03-20T08:32:30;16.65;;;8.02;;
30635;SDS011;17400;52.392;9.750;2023-03-20T08:34:58;22.63;;;10.00;;
30635;SDS011;17400;52.392;9.750;2023-03-20T08:37:26;17.95;;;8.93;;
30635;SDS011;17400;52.392;9.750;2023-03-20T08:39:54;15.18;;;7.05;;
30635;SDS011;17400;52.392;9.750;2023-03-20T08:42:23;18.23;;;8.13;;
30635;SDS011;17400;52.392;9.750;2023-03-20T08:44:51;24.35;;;10.60;;
30635;SDS011;17400;52.392;9.750;2023-03-20T08:47:19;22.00;;;9.30;;
30635;SDS011;17400;52.392;9.750;2023-03-20T08:49:47;15.85;;;7.85;;
30635;SDS011;17400;52.392;9.750;2023-03-20T08:52:15;20.50;;;8.57;;
30635;SDS011;17400;52.392;9.750;2023-03-20T08:54:43;15.68;;;7.85;;
30635;SDS011;17400;52.392;9.750;2023-03-20T08:57:11;16.35;;;7.93;;
30635;SDS011;17400;52.392;9.750;2023-03-20T08:59:41;12.98;;;7.68;;
30635;SDS011;17400;52.392;9.750;2023-03-20T09:02:09;18.15;;;7.90;;
30635;SDS011;17400;52.392;9.750;2023-03-20T09:04:38;12.60;;;6.53;;
30635;SDS011;17400;52.392;9.750;2023-03-20T09:07:06;12.43;;;6.30;;
30635;SDS011;17400;52.392;9.750;2023-03-20T09:09:37;18.42;;;7.35;;
30635;SDS011;17400;52.392;9.750;2023-03-20T09:12:05;13.82;;;7.07;;
30635;SDS011;17400;52.392;9.750;2023-03-20T09:14:33;15.35;;;7.32;;
30635;SDS011;17400;52.392;9.750;2023-03-20T09:17:05;11.50;;;5.95;;
30635;SDS011;17400;52.392;9.750;2023-03-20T09:19:32;15.45;;;7.43;;
30635;SDS011;17400;52.392;9.750;2023-03-20T09:22:04;15.85;;;7.18;;
30635;SDS011;17400;52.392;9.750;2023-03-20T09:24:32;14.93;;;7.93;;
30635;SDS011;17400;52.392;9.750;2023-03-20T09:26:59;17.92;;;7.85;;
30635;SDS011;17400;52.392;9.750;2023-03-20T09:29:29;13.95;;;6.68;;
30635;SDS011;17400;52.392;9.750;2023-03-20T09:31:58;16.08;;;7.40;;
30635;SDS011;17400;52.392;9.750;2023-03-20T09:34:28;14.40;;;6.93;;
30635;SDS011;17400;52.392;9.750;2023-03-20T09:36:56;18.58;;;8.85;;
30635;SDS011;17400;52.392;9.750;2023-03-20T09:39:24;16.35;;;7.47;;
30635;SDS011;17400;52.392;9.750;2023-03-20T09:41:52;18.00;;;8.10;;
30635;SDS011;17400;52.392;9.750;2023-03-20T09:44:30;20.65;;;10.07;;
30635;SDS011;17400;52.392;9.750;2023-03-20T09:47:08;18.30;;;8.52;;
30635;SDS011;17400;52.392;9.750;2023-03-20T09:49:54;17.38;;;9.25;;
30635;SDS011;17400;52.392;9.750;2023-03-20T09:52:34;15.65;;;8.80;;
30635;SDS011;17400;52.392;9.750;2023-03-20T09:55:07;14.02;;;6.35;;
30635;SDS011;17400;52.392;9.750;2023-03-20T09:57:41;15.88;;;7.35;;
30635;SDS011;17400;52.392;9.750;2023-03-20T10:00:12;14.73;;;7.30;;
30635;SDS011;17400;52.392;9.750;2023-03-20T10:02:46;16.33;;;6.78;;
30635;SDS011;17400;52.392;9.750;2023-03-20T10:05:20;16.13;;;7.55;;
30635;SDS011;17400;52.392;9.750;2023-03-20T10:07:50;15.02;;;8.15;;
30635;SDS011;17400;52.392;9.750;2023-03-20T10:10:20;14.18;;;6.70;;
30635;SDS011;17400;52.392;9.750;2023-03-20T10:13:00;8.48;;;4.95;;
30635;SDS011;17400;52.392;9.750;2023-03-20T10:15:39;14.82;;;8.43;;
30635;SDS011;17400;52.392;9.750;2023-03-20T10:18:15;15.27;;;7.47;;
30635;SDS011;17400;52.392;9.750;2023-03-20T10:20:49;16.98;;;8.55;;
30635;SDS011;17400;52.392;9.750;2023-03-20T10:23:25;12.90;;;6.45;;
30635;SDS011;17400;52.392;9.750;2023-03-20T10:25:57;15.82;;;7.55;;
30635;SDS011;17400;52.392;9.750;2023-03-20T10:28:30;13.60;;;7.88;;
30635;SDS011;17400;52.392;9.750;2023-03-20T10:31:06;9.40;;;5.68;;
30635;SDS011;17400;52.392;9.750;2023-03-20T10:33:49;13.88;;;6.45;;
30635;SDS011;17400;52.392;9.750;2023-03-20T10:36:32;12.05;;;6.22;;
30635;SDS011;17400;52.392;9.750;2023-03-20T10:39:12;12.60;;;5.82;;
30635;SDS011;17400;52.392;9.750;2023-03-20T10:41:48;8.57;;;5.38;;
30635;SDS011;17400;52.392;9.750;2023-03-20T10:44:25;9.70;;;4.22;;
30635;SDS011;17400;52.392;9.750;2023-03-20T10:46:58;10.57;;;4.78;;
30635;SDS011;17400;52.392;9.750;2023-03-20T10:49:32;12.30;;;5.55;;
30635;SDS011;17400;52.392;9.750;2023-03-20T10:52:06;13.18;;;4.38;;
30635;SDS011;17400;52.392;9.750;2023-03-20T10:54:40;12.05;;;4.35;;
30635;SDS011;17400;52.392;9.750;2023-03-20T10:57:11;8.10;;;4.22;;
30635;SDS011;17400;52.392;9.750;2023-03-20T10:59:45;8.45;;;4.50;;
30635;SDS011;17400;52.392;9.750;2023-03-20T11:02:17;7.60;;;4.05;;
30635;SDS011;17400;52.392;9.750;2023-03-20T11:04:46;7.53;;;4.28;;
30635;SDS011;17400;52.392;9.750;2023-03-20T11:07:18;7.40;;;3.22;;
30635;SDS011;17400;52.392;9.750;2023-03-20T11:10:06;9.25;;;4.70;;
30635;SDS011;17400;52.392;9.750;2023-03-20T11:12:37;7.13;;;3.75;;
30635;SDS011;17400;52.392;9.750;2023-03-20T11:15:13;7.85;;;3.55;;
30635;SDS011;17400;52.392;9.750;2023-03-20T11:17:50;7.38;;;3.58;;
30635;SDS011;17400;52.392;9.750;2023-03-20T11:20:20;6.57;;;3.95;;
30635;SDS011;17400;52.392;9.750;2023-03-20T11:22:49;7.82;;;3.83;;
30635;SDS011;17400;52.392;9.750;2023-03-20T11:25:29;6.07;;;3.55;;
30635;SDS011;17400;52.392;9.750;2023-03-20T11:30:45;8.90;;;3.38;;
30635;SDS011;17400;52.392;9.750;2023-03-20T11:33:30;7.93;;;4.75;;
30635;SDS011;17400;52.392;9.750;2023-03-20T11:36:00;6.65;;;3.72;;
30635;SDS011;17400;52.392;9.750;2023-03-20T11:38:30;10.75;;;4.35;;
30635;SDS011;17400;52.392;9.750;2023-03-20T11:40:58;7.65;;;4.20;;
30635;SDS011;17400;52.392;9.750;2023-03-20T11:43:26;8.73;;;3.38;;
30635;SDS011;17400;52.392;9.750;2023-03-20T11:45:55;6.47;;;4.32;;
30635;SDS011;17400;52.392;9.750;2023-03-20T11:48:25;11.70;;;4.90;;
30635;SDS011;17400;52.392;9.750;2023-03-20T11:51:03;8.25;;;5.60;;
30635;SDS011;17400;52.392;9.750;2023-03-20T11:53:35;7.70;;;4.45;;
30635;SDS011;17400;52.392;9.750;2023-03-20T11:56:07;9.55;;;4.32;;
30635;SDS011;17400;52.392;9.750;2023-03-20T11:58:38;8.13;;;3.92;;
30635;SDS011;17400;52.392;9.750;2023-03-20T12:01:16;8.18;;;4.60;;
30635;SDS011;17400;52.392;9.750;2023-03-20T12:03:45;7.70;;;3.88;;
30635;SDS011;17400;52.392;9.750;2023-03-20T12:06:21;6.78;;;4.60;;
30635;SDS011;17400;52.392;9.750;2023-03-20T12:08:55;6.97;;;4.00;;
30635;SDS011;17400;52.392;9.750;2023-03-20T12:11:33;7.50;;;3.97;;
30635;SDS011;17400;52.392;9.750;2023-03-20T12:14:11;9.38;;;4.43;;
30635;SDS011;17400;52.392;9.750;2023-03-20T12:16:50;9.40;;;4.18;;
30635;SDS011;17400;52.392;9.750;2023-03-20T12:19:24;8.50;;;4.03;;
30635;SDS011;17400;52.392;9.750;2023-03-20T12:21:58;7.95;;;4.72;;
30635;SDS011;17400;52.392;9.750;2023-03-20T12:24:37;8.75;;;4.25;;
30635;SDS011;17400;52.392;9.750;2023-03-20T12:27:14;8.05;;;4.32;;
30635;SDS011;17400;52.392;9.750;2023-03-20T12:29:48;6.57;;;3.83;;
30635;SDS011;17400;52.392;9.750;2023-03-20T12:32:23;8.80;;;5.22;;
30635;SDS011;17400;52.392;9.750;2023-03-20T12:34:56;6.15;;;4.63;;
30635;SDS011;17400;52.392;9.750;2023-03-20T12:37:29;9.30;;;5.40;;
30635;SDS011;17400;52.392;9.750;2023-03-20T12:39:59;8.88;;;5.63;;
30635;SDS011;17400;52.392;9.750;2023-03-20T12:42:33;10.30;;;6.10;;
30635;SDS011;17400;52.392;9.750;2023-03-20T12:45:09;8.82;;;5.65;;
30635;SDS011;17400;52.392;9.750;2023-03-20T12:47:43;9.65;;;6.25;;
30635;SDS011;17400;52.392;9.750;2023-03-20T12:50:23;7.88;;;6.18;;
30635;SDS011;17400;52.392;9.750;2023-03-20T12:52:59;6.82;;;5.38;;
30635;SDS011;17400;52.392;9.750;2023-03-20T12:55:44;7.57;;;5.25;;
30635;SDS011;17400;52.392;9.750;2023-03-20T12:58:25;9.80;;;5.60;;
30635;SDS011;17400;52.392;9.750;2023-03-20T13:00:59;9.73;;;4.75;;
30635;SDS011;17400;52.392;9.750;2023-03-20T13:06:36;6.35;;;3.78;;
30635;SDS011;17400;52.392;9.750;2023-03-20T13:12:16;6.63;;;4.45;;
30635;SDS011;17400;52.392;9.750;2023-03-20T13:14:52;8.40;;;4.40;;
30635;SDS011;17400;52.392;9.750;2023-03-20T13:17:26;10.52;;;4.57;;
30635;SDS011;17400;52.392;9.750;2023-03-20T13:20:08;6.65;;;4.18;;
30635;SDS011;17400;52.392;9.750;2023-03-20T13:22:53;10.85;;;4.65;;
30635;SDS011;17400;52.392;9.750;2023-03-20T13:25:33;8.13;;;4.38;;
30635;SDS011;17400;52.392;9.750;2023-03-20T13:28:16;7.07;;;4.72;;
30635;SDS011;17400;52.392;9.750;2023-03-20T13:30:52;7.03;;;4.07;;
30635;SDS011;17400;52.392;9.750;2023-03-20T13:33:32;8.43;;;4.45;;
30635;SDS011;17400;52.392;9.750;2023-03-20T13:36:06;5.82;;;4.25;;
30635;SDS011;17400;52.392;9.750;2023-03-20T13:38:44;6.57;;;4.30;;
30635;SDS011;17400;52.392;9.750;2023-03-20T13:41:16;7.90;;;4.22;;
30635;SDS011;17400;52.392;9.750;2023-03-20T13:43:46;4.68;;;3.05;;
30635;SDS011;17400;52.392;9.750;2023-03-20T13:46:21;4.80;;;3.35;;
30635;SDS011;17400;52.392;9.750;2023-03-20T13:48:51;4.82;;;3.38;;
30635;SDS011;17400;52.392;9.750;2023-03-20T13:51:26;7.55;;;4.25;;
30635;SDS011;17400;52.392;9.750;2023-03-20T13:54:00;6.43;;;3.92;;
30635;SDS011;17400;52.392;9.750;2023-03-20T13:56:42;8.57;;;5.22;;
30635;SDS011;17400;52.392;9.750;2023-03-20T13:59:28;5.40;;;4.50;;
30635;SDS011;17400;52.392;9.750;2023-03-20T14:02:07;7.63;;;5.40;;
30635;SDS011;17400;52.392;9.750;2023-03-20T14:04:52;7.10;;;4.40;;
30635;SDS011;17400;52.392;9.750;2023-03-20T14:07:27;11.07;;;4.75;;
30635;SDS011;17400;52.392;9.750;2023-03-20T14:10:06;6.07;;;4.45;;
30635;SDS011;17400;52.392;9.750;2023-03-20T14:13:02;10.43;;;4.63;;
30635;SDS011;17400;52.392;9.750;2023-03-20T14:15:34;7.63;;;4.03;;
30635;SDS011;17400;52.392;9.750;2023-03-20T14:18:04;6.10;;;3.85;;
30635;SDS011;17400;52.392;9.750;2023-03-20T14:20:34;8.02;;;4.25;;
30635;SDS011;17400;52.392;9.750;2023-03-20T14:23:06;8.07;;;5.57;;
30635;SDS011;17400;52.392;9.750;2023-03-20T14:25:41;8.00;;;5.05;;
30635;SDS011;17400;52.392;9.750;2023-03-20T14:28:21;6.38;;;4.68;;
30635;SDS011;17400;52.392;9.750;2023-03-20T14:33:48;6.22;;;3.70;;
30635;SDS011;17400;52.392;9.750;2023-03-20T14:36:22;6.32;;;4.45;;
30635;SDS011;17400;52.392;9.750;2023-03-20T14:38:56;5.78;;;3.28;;
30635;SDS011;17400;52.392;9.750;2023-03-20T14:41:34;9.52;;;4.50;;
30635;SDS011;17400;52.392;9.750;2023-03-20T14:44:14;10.52;;;4.72;;
30635;SDS011;17400;52.392;9.750;2023-03-20T14:46:53;6.07;;;4.93;;
30635;SDS011;17400;52.392;9.750;2023-03-20T14:49:34;6.82;;;4.00;;
30635;SDS011;17400;52.392;9.750;2023-03-20T14:52:17;6.80;;;3.70;;
30635;SDS011;17400;52.392;9.750;2023-03-20T14:54:57;3.40;;;2.65;;
30635;SDS011;17400;52.392;9.750;2023-03-20T14:57:41;7.50;;;3.90;;
30635;SDS011;17400;52.392;9.750;2023-03-20T15:00:24;4.40;;;2.60;;
30635;SDS011;17400;52.392;9.750;2023-03-20T15:03:00;5.05;;;2.85;;
30635;SDS011;17400;52.392;9.750;2023-03-20T15:05:33;4.53;;;2.28;;
30635;SDS011;17400;52.392;9.750;2023-03-20T15:08:04;5.25;;;3.33;;
30635;SDS011;17400;52.392;9.750;2023-03-20T15:10:35;4.47;;;2.53;;
30635;SDS011;17400;52.392;9.750;2023-03-20T15:13:10;4.63;;;3.08;;
30635;SDS011;17400;52.392;9.750;2023-03-20T15:18:36;6.57;;;3.40;;
30635;SDS011;17400;52.392;9.750;2023-03-20T15:21:10;6.05;;;3.00;;
30635;SDS011;17400;52.392;9.750;2023-03-20T15:23:40;7.93;;;3.03;;